Time;durP1;ratioP1;P1;durP2;ratioP2;P2;SDS_P1;SDS_P2;PMS_P1;PMS_P2;Temp;Humidity;BMP_temperature;BMP_pressure;BME280_temperature;BME280_humidity;BME280_pressure;Samples;Min_cycle;Max_cycle;Signal;HPM_P1;HPM_P2
2022/04/25 00:01:10;;;;;;;22.13;11.88;;;6.70;99.90;;;;;;5084559;28;20055;-45
2022/04/25 00:03:37;;;;;;;21.70;11.70;;;6.80;99.90;;;;;;5097910;28;20094;-43
2022/04/25 00:06:03;;;;;;;18.63;10.75;;;6.70;99.90;;;;;;5102073;28;20122;-43
2022/04/25 00:08:29;;;;;;;16.75;11.00;;;6.80;99.90;;;;;;5102911;27;20051;-42
2022/04/25 00:10:55;;;;;;;17.45;11.50;;;6.80;99.90;;;;;;5091217;28;20096;-40
2022/04/25 00:13:21;;;;;;;16.73;11.60;;;6.90;99.90;;;;;;5091833;28;20577;-42
2022/04/25 00:15:46;;;;;;;17.00;11.35;;;6.90;99.90;;;;;;5095499;28;20043;-41
2022/04/25 00:18:12;;;;;;;15.25;10.75;;;7.00;99.90;;;;;;5097094;28;20114;-41
2022/04/25 00:20:38;;;;;;;19.70;12.48;;;7.10;99.90;;;;;;5097019;28;20460;-42
2022/04/25 00:23:05;;;;;;;18.23;12.60;;;7.20;99.90;;;;;;5098604;28;20063;-42
2022/04/25 00:25:35;;;;;;;18.35;11.32;;;7.20;99.90;;;;;;5088331;28;20125;-42
2022/04/25 00:28:02;;;;;;;19.63;12.18;;;7.30;99.90;;;;;;5098901;28;20058;-41
2022/04/25 00:30:28;;;;;;;19.10;11.18;;;7.40;99.90;;;;;;5092881;28;20685;-42
2022/04/25 00:32:56;;;;;;;17.10;12.63;;;7.40;99.90;;;;;;5097041;28;20467;-41
2022/04/25 00:35:22;;;;;;;22.65;13.27;;;7.50;99.90;;;;;;5102078;28;20040;-42
2022/04/25 00:37:49;;;;;;;17.23;11.43;;;7.60;99.90;;;;;;5099996;28;20081;-40
2022/04/25 00:40:15;;;;;;;16.10;11.88;;;7.60;99.90;;;;;;5101775;28;20058;-41
2022/04/25 00:42:41;;;;;;;17.45;12.20;;;7.60;99.90;;;;;;5086275;28;20035;-41
2022/04/25 00:45:11;;;;;;;15.50;11.13;;;7.70;99.90;;;;;;5100685;28;20270;-43
2022/04/25 00:47:37;;;;;;;19.20;12.32;;;7.70;99.90;;;;;;5095817;28;20070;-44
2022/04/25 00:50:04;;;;;;;17.25;11.98;;;7.80;99.90;;;;;;5100113;28;20047;-42
2022/04/25 00:52:29;;;;;;;18.17;12.20;;;7.80;99.90;;;;;;5090543;28;20494;-43
2022/04/25 00:55:00;;;;;;;20.92;12.55;;;7.90;99.90;;;;;;5094207;28;20040;-41
2022/04/25 00:57:27;;;;;;;19.83;12.45;;;7.90;99.90;;;;;;5095970;28;20096;-42
2022/04/25 00:59:54;;;;;;;19.92;12.13;;;7.90;99.90;;;;;;5097604;28;20659;-42
2022/04/25 01:02:19;;;;;;;19.50;12.82;;;7.80;99.90;;;;;;5100681;28;20448;-41
2022/04/25 01:04:45;;;;;;;16.77;11.90;;;7.80;99.90;;;;;;5101965;28;20043;-43
2022/04/25 01:07:11;;;;;;;22.00;12.45;;;7.80;99.90;;;;;;5101716;28;20047;-43
2022/04/25 01:09:36;;;;;;;18.25;12.20;;;7.80;99.90;;;;;;5105588;27;20052;-42
2022/04/25 01:12:03;;;;;;;18.13;12.55;;;7.70;99.90;;;;;;5101159;28;20059;-44
2022/04/25 01:14:28;;;;;;;22.13;13.38;;;7.70;99.90;;;;;;5094291;28;20419;-48
2022/04/25 01:16:54;;;;;;;20.65;13.80;;;7.60;99.90;;;;;;5101228;28;20067;-42
2022/04/25 01:19:20;;;;;;;22.10;13.80;;;7.60;99.90;;;;;;5096773;28;20086;-42
2022/04/25 01:22:01;;;;;;;20.05;13.68;;;7.50;99.90;;;;;;5099588;28;20039;-42
2022/04/25 01:27:17;;;;;;;19.70;14.43;;;7.40;99.90;;;;;;5081296;28;20146;-41
2022/04/25 01:29:47;;;;;;;18.73;14.00;;;7.30;99.90;;;;;;5080601;28;20399;-43
2022/04/25 01:32:14;;;;;;;20.80;14.07;;;7.30;99.90;;;;;;5080569;28;20150;-42
2022/04/25 01:34:40;;;;;;;17.73;13.05;;;7.30;99.90;;;;;;5079355;28;20066;-45
2022/04/25 01:37:07;;;;;;;16.50;13.50;;;7.30;99.90;;;;;;5093633;28;20118;-41
2022/04/25 01:39:35;;;;;;;22.73;15.55;;;7.30;99.90;;;;;;5098432;28;20503;-41
2022/04/25 01:42:01;;;;;;;22.83;13.60;;;7.30;99.90;;;;;;5094187;28;20084;-41
2022/04/25 01:44:27;;;;;;;19.60;14.77;;;7.30;99.90;;;;;;5101138;28;20043;-42
2022/04/25 01:46:52;;;;;;;20.30;14.40;;;7.30;99.90;;;;;;5096547;28;20134;-42
2022/04/25 01:49:18;;;;;;;20.30;14.23;;;7.30;99.90;;;;;;5093055;28;20047;-42
2022/04/25 01:51:44;;;;;;;24.00;14.95;;;7.30;99.90;;;;;;5092321;28;20048;-41
2022/04/25 01:54:09;;;;;;;23.48;15.32;;;7.30;99.90;;;;;;5095826;28;20472;-42
2022/04/25 01:56:35;;;;;;;20.33;15.13;;;7.30;99.90;;;;;;5083490;28;20064;-41
2022/04/25 01:59:01;;;;;;;27.05;16.33;;;7.40;99.90;;;;;;5098550;28;20047;-42
2022/04/25 02:01:27;;;;;;;20.50;15.43;;;7.40;99.90;;;;;;5094755;28;20081;-41
2022/04/25 02:03:52;;;;;;;19.65;15.40;;;7.30;99.90;;;;;;5091992;28;20084;-46
2022/04/25 02:06:18;;;;;;;22.63;16.40;;;7.30;99.90;;;;;;5095656;28;20100;-43
2022/04/25 02:08:44;;;;;;;26.85;17.20;;;7.30;99.90;;;;;;5101858;28;20436;-42
2022/04/25 02:11:19;;;;;;;20.83;16.55;;;7.30;99.90;;;;;;5103099;27;20535;-42
2022/04/25 02:13:45;;;;;;;25.38;16.50;;;7.20;99.90;;;;;;5097975;28;20169;-42
2022/04/25 02:16:21;;;;;;;21.55;17.65;;;7.20;99.90;;;;;;5100202;28;20044;-43
2022/04/25 02:18:48;;;;;;;27.33;18.15;;;7.20;99.90;;;;;;5092672;28;20056;-41
2022/04/25 02:21:14;;;;;;;23.27;18.02;;;7.20;99.90;;;;;;5097907;28;20067;-42
2022/04/25 02:23:41;;;;;;;22.98;16.83;;;7.20;99.90;;;;;;5101090;28;20055;-43
2022/04/25 02:26:10;;;;;;;22.70;17.52;;;7.20;99.90;;;;;;5098453;28;20055;-42
2022/04/25 02:28:37;;;;;;;21.30;16.45;;;7.20;99.90;;;;;;5100276;28;20043;-45
2022/04/25 02:31:04;;;;;;;23.25;16.60;;;7.20;99.90;;;;;;5095286;28;20048;-43
2022/04/25 02:33:31;;;;;;;23.65;15.98;;;7.10;99.90;;;;;;5100720;28;20055;-45
2022/04/25 02:35:58;;;;;;;26.65;15.65;;;7.10;99.90;;;;;;5087706;28;20048;-43
2022/04/25 02:38:24;;;;;;;19.42;14.88;;;7.00;99.90;;;;;;5104262;28;20691;-41
2022/04/25 02:41:04;;;;;;;22.08;14.38;;;7.00;99.90;;;;;;5097574;28;20058;-41
2022/04/25 02:43:59;;;;;;;19.35;13.90;;;7.00;99.90;;;;;;5094185;28;20069;-44
2022/04/25 02:46:25;;;;;;;25.40;14.65;;;6.90;99.90;;;;;;5053467;28;20095;-42
2022/04/25 02:48:51;;;;;;;22.52;14.10;;;6.90;99.90;;;;;;5055344;28;20124;-42
2022/04/25 02:51:17;;;;;;;19.40;12.73;;;6.90;99.90;;;;;;5060224;28;20143;-42
2022/04/25 02:53:43;;;;;;;21.40;14.35;;;6.90;99.90;;;;;;5054324;28;20112;-41
2022/04/25 02:56:09;;;;;;;17.80;13.45;;;6.80;99.90;;;;;;5059651;28;20056;-46
2022/04/25 02:58:37;;;;;;;17.33;13.25;;;6.80;99.90;;;;;;5054053;28;20187;-41
2022/04/25 03:01:06;;;;;;;19.58;13.02;;;6.80;99.90;;;;;;5028772;28;20049;-42
2022/04/25 03:03:33;;;;;;;20.33;13.27;;;6.70;99.90;;;;;;5055567;28;20096;-42
2022/04/25 03:06:00;;;;;;;17.30;13.25;;;6.70;99.90;;;;;;5050507;28;20056;-41
2022/04/25 03:08:25;;;;;;;14.50;12.30;;;6.60;99.90;;;;;;5046665;28;20049;-41
2022/04/25 03:10:52;;;;;;;20.15;14.57;;;6.60;99.90;;;;;;5040566;28;20056;-41
2022/04/25 03:13:19;;;;;;;19.17;13.20;;;6.60;99.90;;;;;;5057474;28;20053;-41
2022/04/25 03:15:48;;;;;;;19.20;12.35;;;6.50;99.90;;;;;;5052763;28;20065;-44
2022/04/25 03:18:20;;;;;;;16.27;12.30;;;6.40;99.90;;;;;;5041927;28;20477;-41
2022/04/25 03:20:48;;;;;;;22.38;12.80;;;6.40;99.90;;;;;;5059484;28;20063;-44
2022/04/25 03:23:18;;;;;;;19.20;12.93;;;6.40;99.90;;;;;;5086921;28;20126;-48
2022/04/25 03:25:45;;;;;;;17.38;13.20;;;6.40;99.90;;;;;;5100927;28;20083;-43
2022/04/25 03:28:11;;;;;;;18.00;12.27;;;6.40;99.90;;;;;;5096951;28;20503;-42
2022/04/25 03:30:37;;;;;;;18.88;12.65;;;6.30;99.90;;;;;;5092739;28;20744;-43
2022/04/25 03:33:06;;;;;;;16.02;12.07;;;6.30;99.90;;;;;;5097438;28;20071;-43
2022/04/25 03:35:32;;;;;;;19.35;12.77;;;6.30;99.90;;;;;;5097732;28;20048;-44
2022/04/25 03:37:58;;;;;;;18.08;12.60;;;6.30;99.90;;;;;;5103058;28;20051;-41
2022/04/25 03:40:25;;;;;;;15.85;11.93;;;6.20;99.90;;;;;;5102876;28;20048;-42
2022/04/25 03:42:50;;;;;;;18.98;12.82;;;6.20;99.90;;;;;;5102539;28;20401;-44
2022/04/25 03:45:18;;;;;;;19.23;13.82;;;6.30;99.90;;;;;;5104543;28;20047;-44
2022/04/25 03:47:46;;;;;;;19.63;13.05;;;6.30;99.90;;;;;;5104701;27;20051;-41
2022/04/25 03:50:14;;;;;;;18.88;13.00;;;6.20;99.90;;;;;;5101863;28;20058;-42
2022/04/25 03:52:42;;;;;;;16.73;12.35;;;6.30;99.90;;;;;;5103634;28;20079;-41
2022/04/25 03:57:55;;;;;;;17.65;12.52;;;6.20;99.90;;;;;;5090338;28;20052;-42
2022/04/25 04:00:21;;;;;;;14.85;12.85;;;6.20;99.90;;;;;;5101749;28;20134;-46
2022/04/25 04:02:47;;;;;;;20.10;12.63;;;6.20;99.90;;;;;;5099035;27;20464;-42
2022/04/25 04:05:13;;;;;;;16.20;12.63;;;6.20;99.90;;;;;;5099636;28;20086;-41
2022/04/25 04:07:39;;;;;;;18.35;12.90;;;6.20;99.90;;;;;;5096264;28;20050;-41
2022/04/25 04:10:07;;;;;;;16.67;13.35;;;6.20;99.90;;;;;;5108715;27;20066;-43
2022/04/25 04:12:36;;;;;;;17.15;12.50;;;6.20;99.90;;;;;;5101817;27;20054;-42
2022/04/25 04:15:05;;;;;;;17.90;12.20;;;6.20;99.90;;;;;;5095945;28;20047;-43
2022/04/25 04:17:34;;;;;;;17.58;13.23;;;6.20;99.90;;;;;;5100393;28;20402;-42
2022/04/25 04:20:02;;;;;;;19.23;13.93;;;6.30;99.90;;;;;;5098368;28;20071;-41
2022/04/25 04:22:30;;;;;;;16.13;11.70;;;6.30;99.90;;;;;;5095499;28;20048;-43
2022/04/25 04:25:04;;;;;;;17.63;13.85;;;6.30;99.90;;;;;;5102229;28;20039;-43
2022/04/25 04:27:32;;;;;;;;;;;6.30;99.90;;;;;;5094690;28;20060;-41
2022/04/25 04:30:06;;;;;;;20.63;12.80;;;6.40;99.90;;;;;;5094176;28;20347;-41
2022/04/25 04:32:32;;;;;;;19.25;13.70;;;6.50;99.90;;;;;;5102156;28;20572;-43
2022/04/25 04:34:59;;;;;;;20.17;13.93;;;6.50;99.90;;;;;;5102870;28;20048;-41
2022/04/25 04:37:26;;;;;;;16.80;12.40;;;6.50;99.90;;;;;;5083865;28;20144;-41
2022/04/25 04:42:40;;;;;;;18.88;12.85;;;6.70;99.90;;;;;;5099438;28;20044;-41
2022/04/25 04:45:06;;;;;;;16.30;11.80;;;6.80;99.90;;;;;;5100206;28;20897;-41
2022/04/25 04:47:36;;;;;;;16.95;11.73;;;6.90;99.90;;;;;;5094576;28;20424;-42
2022/04/25 04:50:03;;;;;;;19.45;12.75;;;6.90;99.90;;;;;;5097279;28;20105;-41
2022/04/25 04:52:28;;;;;;;16.83;12.43;;;7.00;99.90;;;;;;5095097;28;20052;-42
2022/04/25 04:54:54;;;;;;;19.80;12.48;;;7.00;99.90;;;;;;5103474;27;20089;-40
2022/04/25 04:57:20;;;;;;;18.95;13.02;;;7.10;99.90;;;;;;5090452;28;20039;-45
2022/04/25 04:59:46;;;;;;;19.00;12.60;;;7.10;99.90;;;;;;5094490;28;20051;-49
2022/04/25 05:02:11;;;;;;;18.98;12.13;;;7.20;99.90;;;;;;5098713;28;20050;-41
2022/04/25 05:04:38;;;;;;;19.00;11.95;;;7.20;99.90;;;;;;5102267;28;20075;-43
2022/04/25 05:07:05;;;;;;;19.02;11.45;;;7.30;99.90;;;;;;5101546;28;20088;-42
2022/04/25 05:09:30;;;;;;;17.60;12.30;;;7.30;99.90;;;;;;5102307;27;20039;-43
2022/04/25 05:11:56;;;;;;;16.65;10.75;;;7.40;99.90;;;;;;5095028;28;20516;-43
2022/04/25 05:14:22;;;;;;;16.77;11.63;;;7.50;99.90;;;;;;5096919;28;20044;-42
2022/04/25 05:16:47;;;;;;;18.40;11.82;;;7.50;99.90;;;;;;5092770;28;20170;-43
2022/04/25 05:19:13;;;;;;;18.35;11.40;;;7.60;99.90;;;;;;5099280;28;20054;-41
2022/04/25 05:21:39;;;;;;;15.82;11.23;;;7.60;99.90;;;;;;5095638;28;20040;-41
2022/04/25 05:24:06;;;;;;;16.40;11.60;;;7.70;99.90;;;;;;5097551;28;20095;-42
2022/04/25 05:26:32;;;;;;;17.38;11.60;;;7.70;99.90;;;;;;5096568;28;20052;-43
2022/04/25 05:28:58;;;;;;;15.70;12.00;;;7.70;99.90;;;;;;5097917;28;20059;-45
2022/04/25 05:31:24;;;;;;;17.00;11.77;;;7.80;99.90;;;;;;5099060;28;20066;-41
2022/04/25 05:33:50;;;;;;;14.95;11.20;;;7.80;99.90;;;;;;5094304;28;20048;-42
2022/04/25 05:36:16;;;;;;;14.65;11.50;;;7.80;99.90;;;;;;5093342;28;20103;-41
2022/04/25 05:38:41;;;;;;;15.38;12.00;;;7.90;99.90;;;;;;5084695;28;20134;-43
2022/04/25 05:41:09;;;;;;;16.38;12.55;;;7.90;99.90;;;;;;5091503;28;20133;-43
2022/04/25 05:43:39;;;;;;;14.52;12.23;;;7.90;99.90;;;;;;5091712;28;20060;-42
2022/04/25 05:46:05;;;;;;;14.93;11.75;;;7.90;99.90;;;;;;5094698;28;20050;-42
2022/04/25 05:54:00;;;;;;;15.35;12.18;;;7.90;99.90;;;;;;5093351;28;20055;-41
2022/04/25 05:56:26;;;;;;;16.92;12.02;;;7.90;99.90;;;;;;5091545;28;20044;-45
2022/04/25 05:58:52;;;;;;;16.23;12.07;;;7.90;99.90;;;;;;5100737;28;20043;-42
2022/04/25 06:01:18;;;;;;;18.90;12.90;;;8.00;99.90;;;;;;5098016;28;20516;-41
2022/04/25 06:03:44;;;;;;;15.50;12.18;;;7.90;99.90;;;;;;5097473;28;20047;-42
2022/04/25 06:06:09;;;;;;;17.30;12.90;;;8.00;99.90;;;;;;5100106;28;20170;-43
2022/04/25 06:08:36;;;;;;;18.08;12.77;;;7.90;99.90;;;;;;5103563;28;20317;-43
2022/04/25 06:11:02;;;;;;;15.93;11.95;;;7.90;99.90;;;;;;5104953;27;20052;-42
2022/04/25 06:13:28;;;;;;;18.80;12.68;;;8.00;99.90;;;;;;5097083;28;20746;-47
2022/04/25 06:15:57;;;;;;;15.85;11.85;;;7.90;99.90;;;;;;5101385;28;20818;-43
2022/04/25 06:18:22;;;;;;;16.52;11.98;;;7.90;99.90;;;;;;5096745;28;20075;-43
2022/04/25 06:20:49;;;;;;;17.52;12.98;;;7.90;99.90;;;;;;5099154;28;20575;-41
2022/04/25 06:23:15;;;;;;;17.60;14.13;;;7.90;99.90;;;;;;5096135;28;20547;-41
2022/04/25 06:25:41;;;;;;;17.80;12.35;;;8.00;99.90;;;;;;5092146;28;20132;-41
2022/04/25 06:28:07;;;;;;;16.70;13.07;;;7.90;99.90;;;;;;5094991;28;20132;-43
2022/04/25 06:30:33;;;;;;;16.98;12.93;;;7.90;99.90;;;;;;5094310;28;20104;-41
2022/04/25 06:33:02;;;;;;;18.85;13.48;;;7.90;99.90;;;;;;5097558;28;20406;-41
2022/04/25 06:35:29;;;;;;;18.83;13.18;;;8.00;99.90;;;;;;5094883;28;20039;-41
2022/04/25 06:37:55;;;;;;;15.68;12.48;;;7.90;99.90;;;;;;5087136;28;20550;-41
2022/04/25 06:40:22;;;;;;;14.93;13.00;;;7.90;99.90;;;;;;5091941;28;20055;-42
2022/04/25 06:42:49;;;;;;;19.13;14.20;;;7.90;99.90;;;;;;5098976;28;20044;-42
2022/04/25 06:45:15;;;;;;;18.33;13.90;;;7.90;99.90;;;;;;5093693;28;20153;-42
2022/04/25 06:47:42;;;;;;;17.95;13.52;;;7.90;99.90;;;;;;5099031;28;20043;-42
2022/04/25 06:50:09;;;;;;;18.92;14.15;;;7.90;99.90;;;;;;5094702;28;20459;-41
2022/04/25 06:52:35;;;;;;;16.83;13.63;;;7.90;99.90;;;;;;5099769;28;20478;-41
2022/04/25 06:55:04;;;;;;;19.15;14.40;;;7.80;99.90;;;;;;5098761;28;20096;-43
2022/04/25 06:57:33;;;;;;;18.73;14.68;;;7.70;99.90;;;;;;5096973;28;20566;-41
2022/04/25 07:00:08;;;;;;;16.70;13.25;;;7.70;99.90;;;;;;5094179;28;20099;-42
2022/04/25 07:02:37;;;;;;;18.02;13.50;;;7.80;99.90;;;;;;5095945;28;20048;-42
2022/04/25 07:05:06;;;;;;;15.23;12.70;;;7.80;99.90;;;;;;5094008;28;20047;-41
2022/04/25 07:07:32;;;;;;;16.45;13.43;;;7.90;99.90;;;;;;5095171;28;20055;-41
2022/04/25 07:09:58;;;;;;;16.77;13.57;;;7.90;99.90;;;;;;5103177;28;20375;-42
2022/04/25 07:12:24;;;;;;;19.10;13.80;;;7.90;99.90;;;;;;5095969;28;20043;-46
2022/04/25 07:14:49;;;;;;;17.35;13.07;;;8.00;99.90;;;;;;5090524;28;20859;-42
2022/04/25 07:17:15;;;;;;;15.48;13.20;;;8.00;99.90;;;;;;5097146;28;20052;-44
2022/04/25 07:19:41;;;;;;;17.50;12.55;;;8.10;99.90;;;;;;5100742;28;20043;-42
2022/04/25 07:30:24;;;;;;;15.40;12.13;;;8.30;99.90;;;;;;5100977;28;20082;-41
2022/04/25 07:32:50;;;;;;;15.88;13.27;;;8.30;99.90;;;;;;5101305;28;20058;-41
2022/04/25 07:35:17;;;;;;;15.38;12.48;;;8.40;99.90;;;;;;5097244;28;20059;-41
2022/04/25 07:37:42;;;;;;;16.52;12.45;;;8.30;99.90;;;;;;5099308;28;20093;-41
2022/04/25 07:40:09;;;;;;;16.92;11.88;;;8.40;99.90;;;;;;5099910;28;20455;-43
2022/04/25 07:42:39;;;;;;;20.83;13.50;;;8.40;99.90;;;;;;5095399;28;20063;-42
2022/04/25 07:45:06;;;;;;;16.65;12.65;;;8.30;99.90;;;;;;5099098;28;20414;-44
2022/04/25 07:47:33;;;;;;;16.70;13.68;;;8.30;99.90;;;;;;5095858;28;20059;-41
2022/04/25 07:49:59;;;;;;;18.00;13.15;;;8.40;99.90;;;;;;5098439;28;20432;-41
2022/04/25 07:52:25;;;;;;;17.67;14.38;;;8.40;99.90;;;;;;5100586;28;20391;-41
2022/04/25 07:54:56;;;;;;;18.17;13.65;;;8.40;99.90;;;;;;5100956;28;20055;-42
2022/04/25 07:57:21;;;;;;;17.83;13.40;;;8.40;99.90;;;;;;5088474;28;20469;-43
2022/04/25 07:59:47;;;;;;;19.58;14.15;;;8.40;99.90;;;;;;5094671;28;20040;-43
2022/04/25 08:02:17;;;;;;;20.40;15.02;;;8.50;99.90;;;;;;5097272;28;20561;-43
2022/04/25 08:04:45;;;;;;;19.52;12.55;;;8.50;99.90;;;;;;5095405;27;20048;-41
2022/04/25 08:07:11;;;;;;;15.93;12.65;;;8.50;99.90;;;;;;5098011;28;20444;-41
2022/04/25 08:09:37;;;;;;;18.63;13.40;;;8.50;99.90;;;;;;5100913;27;20612;-41
2022/04/25 08:20:17;;;;;;;15.63;12.55;;;8.60;99.90;;;;;;5101009;28;20085;-44
2022/04/25 08:22:43;;;;;;;18.15;14.10;;;8.60;99.90;;;;;;5099926;28;20055;-42
2022/04/25 08:25:10;;;;;;;17.52;13.73;;;8.60;99.90;;;;;;5097572;28;20130;-42
2022/04/25 08:27:36;;;;;;;15.57;13.32;;;8.60;99.90;;;;;;5098679;28;20414;-42
2022/04/25 08:30:03;;;;;;;16.38;13.32;;;8.60;99.90;;;;;;5098839;28;20044;-41
2022/04/25 08:32:33;;;;;;;16.08;13.45;;;8.60;99.90;;;;;;5092235;28;20062;-41
2022/04/25 08:35:01;;;;;;;15.95;12.48;;;8.70;99.90;;;;;;5084560;28;20051;-42
2022/04/25 08:37:27;;;;;;;16.48;13.38;;;8.70;99.90;;;;;;5099305;28;20047;-41
2022/04/25 08:39:53;;;;;;;13.95;11.88;;;8.80;99.90;;;;;;5104389;28;20055;-42
2022/04/25 08:42:20;;;;;;;17.10;13.48;;;8.90;99.90;;;;;;5096066;28;20063;-44
2022/04/25 08:44:52;;;;;;;18.00;13.10;;;9.00;99.90;;;;;;5098829;28;20059;-41
2022/04/25 08:47:17;;;;;;;14.35;12.35;;;9.00;99.90;;;;;;5098449;28;20051;-41
2022/04/25 08:49:44;;;;;;;18.00;12.63;;;9.00;99.90;;;;;;5097205;28;20051;-43
2022/04/25 08:52:10;;;;;;;14.35;11.88;;;9.00;99.90;;;;;;5094519;28;20063;-41
2022/04/25 08:54:36;;;;;;;15.27;13.27;;;8.90;99.90;;;;;;5098046;28;20065;-43
2022/04/25 08:57:05;;;;;;;19.30;13.90;;;8.90;99.90;;;;;;5089581;28;20476;-43
2022/04/25 08:59:32;;;;;;;14.52;12.80;;;8.80;99.90;;;;;;5101995;28;20055;-43
2022/04/25 09:01:58;;;;;;;14.23;12.80;;;8.80;99.90;;;;;;5092646;28;20059;-41
2022/04/25 09:04:24;;;;;;;17.05;12.75;;;8.80;99.90;;;;;;5090310;28;20062;-41
2022/04/25 09:06:51;;;;;;;15.30;12.95;;;8.70;99.90;;;;;;5096848;28;20057;-42
2022/04/25 09:09:18;;;;;;;16.70;13.43;;;8.70;99.90;;;;;;5097550;27;20051;-42
2022/04/25 09:14:28;;;;;;;18.13;13.30;;;8.70;99.90;;;;;;5097783;28;20047;-41
2022/04/25 09:16:54;;;;;;;15.15;13.00;;;8.70;99.90;;;;;;5086753;28;20052;-41
2022/04/25 09:19:20;;;;;;;16.23;14.18;;;8.70;99.90;;;;;;5084939;28;20048;-41
2022/04/25 09:21:46;;;;;;;18.33;14.82;;;8.70;99.90;;;;;;5089699;28;20083;-41
2022/04/25 09:24:46;;;;;;;26.38;15.25;;;8.70;99.90;;;;;;5090935;28;20489;-41
2022/04/25 09:27:16;;;;;;;19.20;14.88;;;8.80;99.90;;;;;;5082323;28;20070;-42
2022/04/25 09:29:42;;;;;;;18.33;15.05;;;8.90;99.90;;;;;;5088297;28;20574;-41
2022/04/25 09:32:13;;;;;;;17.58;15.07;;;8.90;99.90;;;;;;5090078;28;20056;-42
2022/04/25 09:37:46;;;;;;;18.77;14.60;;;9.00;99.90;;;;;;5086118;28;20477;-41
2022/04/25 09:40:15;;;;;;;21.25;15.88;;;9.00;99.90;;;;;;5081394;28;20048;-41
2022/04/25 09:42:40;;;;;;;20.33;14.38;;;9.00;99.90;;;;;;5085044;28;20486;-43
2022/04/25 09:45:07;;;;;;;18.13;13.57;;;9.00;99.90;;;;;;5084918;28;20055;-45
2022/04/25 09:47:33;;;;;;;14.77;13.27;;;9.10;99.90;;;;;;5092440;28;20445;-41
2022/04/25 09:50:10;;;;;;;18.40;12.23;;;9.10;99.90;;;;;;5095587;28;20154;-41
2022/04/25 09:52:57;;;;;;;19.48;13.50;;;9.10;99.90;;;;;;5100271;28;20040;-42
2022/04/25 09:55:26;;;;;;;17.08;13.20;;;9.10;99.90;;;;;;5104231;28;20062;-41
2022/04/25 09:57:52;;;;;;;18.45;12.57;;;9.10;99.90;;;;;;5099807;28;20119;-50
2022/04/25 10:00:29;;;;;;;17.70;12.38;;;9.10;99.90;;;;;;5100235;28;20113;-42
2022/04/25 10:02:55;;;;;;;21.08;13.98;;;9.10;99.90;;;;;;5102220;28;20047;-41
2022/04/25 10:05:20;;;;;;;17.75;14.45;;;9.00;99.90;;;;;;5096066;28;20035;-41
2022/04/25 10:07:47;;;;;;;18.85;14.02;;;8.90;99.90;;;;;;5100219;28;20558;-41
2022/04/25 10:10:13;;;;;;;17.17;15.38;;;8.90;99.90;;;;;;5094015;28;20065;-42
2022/04/25 10:12:39;;;;;;;19.20;15.32;;;9.00;99.90;;;;;;5098522;28;20095;-44
2022/04/25 10:15:06;;;;;;;20.15;14.68;;;8.90;99.90;;;;;;5098372;28;20104;-41
2022/04/25 10:17:38;;;;;;;20.05;15.20;;;9.00;99.90;;;;;;5101208;28;20062;-43
2022/04/25 10:20:04;;;;;;;18.40;15.75;;;9.00;99.90;;;;;;5100376;28;20177;-44
2022/04/25 10:22:31;;;;;;;21.88;16.42;;;9.00;99.90;;;;;;5094265;28;20498;-42
2022/04/25 10:24:56;;;;;;;19.98;16.60;;;9.00;99.90;;;;;;5083334;28;20051;-43
2022/04/25 10:27:28;;;;;;;19.52;17.52;;;9.00;99.90;;;;;;5088874;28;20040;-42
2022/04/25 10:29:59;;;;;;;22.50;17.60;;;9.10;99.90;;;;;;5083855;28;20464;-41
2022/04/25 10:32:25;;;;;;;19.92;16.42;;;9.10;99.90;;;;;;5086451;28;20553;-42
2022/04/25 10:35:01;;;;;;;19.98;15.05;;;9.20;99.90;;;;;;5083063;28;20087;-43
2022/04/25 10:37:34;;;;;;;19.25;14.90;;;9.20;99.90;;;;;;5090219;28;20044;-44
2022/04/25 10:40:07;;;;;;;20.40;14.40;;;9.20;99.90;;;;;;5101613;28;20047;-41
2022/04/25 10:45:54;;;;;;;16.58;12.95;;;9.20;99.90;;;;;;5101197;28;20043;-42
2022/04/25 10:48:20;;;;;;;16.27;14.00;;;9.20;99.90;;;;;;5087602;28;20055;-41
2022/04/25 10:51:13;;;;;;;16.05;13.52;;;9.20;99.90;;;;;;5092662;28;20294;-41
2022/04/25 10:54:01;;;;;;;16.10;14.50;;;9.20;99.90;;;;;;5082052;28;20062;-42
2022/04/25 10:56:28;;;;;;;17.55;13.18;;;9.30;99.90;;;;;;5094637;28;20062;-41
2022/04/25 10:59:25;;;;;;;13.45;11.85;;;9.30;99.90;;;;;;5089781;28;20055;-43
2022/04/25 11:01:52;;;;;;;15.25;12.25;;;9.40;99.90;;;;;;5041084;28;20138;-43
2022/04/25 11:04:19;;;;;;;15.88;11.00;;;9.40;99.90;;;;;;5042226;28;20092;-42
2022/04/25 11:06:46;;;;;;;12.48;10.05;;;9.30;99.90;;;;;;5042309;28;20559;-42
2022/04/25 11:09:39;;;;;;;11.38;9.95;;;9.40;99.90;;;;;;5052763;28;20145;-42
2022/04/25 11:12:05;;;;;;;14.17;9.70;;;9.40;99.90;;;;;;5047613;28;20138;-44
2022/04/25 11:14:31;;;;;;;12.10;9.55;;;9.40;99.90;;;;;;5060958;28;20084;-41
2022/04/25 11:17:06;;;;;;;12.70;10.23;;;9.40;99.90;;;;;;5052641;28;20152;-41
2022/04/25 11:19:51;;;;;;;12.88;10.43;;;9.40;99.90;;;;;;5032321;28;20112;-44
2022/04/25 11:22:35;;;;;;;10.60;8.57;;;9.50;99.90;;;;;;5031500;28;20119;-41
2022/04/25 11:25:22;;;;;;;11.13;8.88;;;9.60;99.90;;;;;;5026240;28;20558;-41
2022/04/25 11:28:20;;;;;;;11.27;9.50;;;9.60;99.90;;;;;;5025340;28;20597;-42
2022/04/25 11:31:12;;;;;;;13.65;8.63;;;9.70;99.90;;;;;;4970006;28;20062;-41
2022/04/25 11:33:48;;;;;;;14.27;9.20;;;9.70;99.90;;;;;;4955725;28;20062;-42
2022/04/25 11:36:15;;;;;;;13.25;9.40;;;9.80;99.90;;;;;;4980830;28;20473;-43
2022/04/25 11:41:31;;;;;;;15.65;10.20;;;9.80;99.90;;;;;;4997841;28;20088;-45
2022/04/25 11:44:00;;;;;;;13.10;10.95;;;9.80;99.90;;;;;;4999311;28;20408;-41
2022/04/25 11:46:28;;;;;;;11.68;10.48;;;9.70;99.90;;;;;;5000986;28;20058;-41
2022/04/25 11:48:55;;;;;;;12.70;10.55;;;9.80;99.90;;;;;;5000921;28;20561;-41
2022/04/25 11:51:40;;;;;;;12.18;10.13;;;9.70;99.90;;;;;;4993302;28;20045;-42
2022/04/25 11:54:10;;;;;;;14.25;11.15;;;9.60;99.90;;;;;;4996898;28;20447;-44
2022/04/25 11:56:41;;;;;;;12.82;9.98;;;9.60;99.90;;;;;;4978939;28;20057;-43
2022/04/25 11:59:14;;;;;;;15.00;11.52;;;9.60;99.90;;;;;;4996228;28;20089;-43
2022/04/25 12:01:50;;;;;;;18.42;11.98;;;9.60;99.90;;;;;;4996998;28;20046;-43
2022/04/25 12:04:15;;;;;;;15.13;11.70;;;9.60;99.90;;;;;;4996046;28;20436;-43
2022/04/25 12:07:02;;;;;;;14.48;11.80;;;9.60;99.90;;;;;;5039025;28;20052;-44
2022/04/25 12:15:40;;;;;;;18.15;12.57;;;9.60;99.90;;;;;;5076739;28;20119;-45
2022/04/25 12:18:20;;;;;;;14.43;11.70;;;9.60;99.90;;;;;;5097334;28;20595;-44
2022/04/25 12:20:48;;;;;;;16.33;11.27;;;9.60;99.90;;;;;;5097350;28;20150;-43
2022/04/25 12:23:25;;;;;;;15.88;12.52;;;9.70;99.90;;;;;;5104768;27;20526;-43
2022/04/25 12:25:53;;;;;;;21.88;12.55;;;9.80;99.90;;;;;;5096564;28;20051;-43
2022/04/25 12:28:23;;;;;;;14.13;10.77;;;9.80;99.90;;;;;;5099040;28;20847;-43
2022/04/25 12:30:57;;;;;;;14.15;10.88;;;9.90;99.90;;;;;;5099244;28;20072;-43
2022/04/25 12:33:36;;;;;;;17.35;11.65;;;10.00;99.90;;;;;;5097172;28;20095;-44
2022/04/25 12:36:11;;;;;;;12.50;10.05;;;10.10;99.90;;;;;;5093852;28;20054;-43
2022/04/25 12:38:37;;;;;;;15.68;10.57;;;10.10;99.90;;;;;;5086769;28;20139;-43
2022/04/25 12:41:04;;;;;;;12.65;9.70;;;10.10;99.90;;;;;;5097278;28;20055;-44
2022/04/25 12:43:44;;;;;;;14.20;10.65;;;10.30;99.90;;;;;;5094424;28;20052;-42
2022/04/25 12:46:11;;;;;;;12.13;9.70;;;10.30;99.90;;;;;;5097475;28;20436;-45
2022/04/25 12:49:00;;;;;;;12.85;9.80;;;10.40;99.90;;;;;;5100488;28;20043;-42
2022/04/25 12:51:27;;;;;;;10.50;8.95;;;10.60;99.90;;;;;;5096454;28;20055;-42
2022/04/25 12:53:53;;;;;;;10.63;8.80;;;10.70;99.90;;;;;;5090293;28;20051;-42
2022/04/25 12:56:24;;;;;;;15.70;10.25;;;10.90;99.90;;;;;;5094062;28;20546;-43
2022/04/25 12:58:50;;;;;;;12.27;8.48;;;11.00;99.90;;;;;;5096707;28;20050;-42
2022/04/25 13:01:30;;;;;;;11.88;10.00;;;11.10;99.90;;;;;;5094575;28;20489;-44
2022/04/25 13:04:13;;;;;;;13.52;9.60;;;11.20;99.90;;;;;;5087287;28;20044;-43
2022/04/25 13:06:42;;;;;;;11.10;9.32;;;11.30;99.90;;;;;;5088600;28;20076;-43
2022/04/25 13:09:09;;;;;;;14.43;9.80;;;11.40;99.90;;;;;;5088455;28;20155;-43
2022/04/25 13:11:37;;;;;;;15.15;10.05;;;11.60;99.90;;;;;;5095467;28;20540;-42
2022/04/25 13:14:03;;;;;;;12.30;10.18;;;11.80;99.90;;;;;;5096965;28;20048;-44
2022/04/25 13:16:29;;;;;;;13.57;10.18;;;11.80;99.90;;;;;;5095700;28;20062;-43
2022/04/25 13:18:56;;;;;;;14.75;10.50;;;11.90;99.90;;;;;;5093460;28;20058;-43
2022/04/25 13:21:21;;;;;;;14.50;10.40;;;11.90;99.90;;;;;;5092917;28;20563;-42
2022/04/25 13:23:49;;;;;;;11.48;9.68;;;11.90;99.90;;;;;;5097978;28;20051;-42
2022/04/25 13:26:16;;;;;;;13.52;10.25;;;12.00;99.90;;;;;;5091852;28;20397;-42
2022/04/25 13:28:42;;;;;;;13.75;10.35;;;12.10;99.90;;;;;;5098498;28;20040;-43
2022/04/25 13:31:08;;;;;;;13.25;10.10;;;12.20;99.90;;;;;;5099871;28;20052;-45
2022/04/25 13:33:34;;;;;;;10.25;8.90;;;12.20;99.90;;;;;;5097895;28;20087;-44